Startpagina
METAR-TAF:

METAR-TAF

Vliegvelden :

Córdoba, Argentinië

breedte: 31-19S, lengte: 064-13W, hoogte: 484 m

Actueel weer

Dit bericht is 14 minuten geleden gemaakt, om 21:00 UTC
Wind 15 kt uit het noordoosten
Temperatuur 23°C
Vochtigheid 53%
Druk 1013 hPa
Zicht 10 km of meer
Weinig wolken op 5000 ft

METAR: SACO 242100Z 05015KT 9999 FEW050 23/13 Q1013

Tijdstip: 18:14 (21:14 UTC)

Verwachting

Dit bericht is 4 uur en het 14 minuten geleden gemaakt, om 17:00 UTC
Verwachting geldig van 24 om 18 UTC tot 25 om 18 UTC
Wind 20 kt uit het noordoosten
Zicht 10 km of meer
Weinig wolken op 3000 ft
Wijzigt naar
van 25 om 01 UTC tot 25 om 04 UTC
Wind 5 kt uit het noordwesten

TAF: SACO 241700Z 2418/2518 05020KT 9999 FEW030 TX28/2518Z TN13/2510Z BECMG 2501/2504 32005KT

Waarnemingen en weersverwachtingen van meer dan 4000 vliegvelden (METAR en TAF).

De beschikbare stations zijn de gele en rode punten op de kaart.

Ga met uw muis naar het station om de naam te zien.

Klik dan om waarnemingen en weersverwachtingen te zien.

kaart wijzigen: klik op de groene knoppen met een zwart kruis om in te zoomen, op de groene knop met een streepje om uit te zoomen of op de groene pijlen voor aangrenzende kaarten.


METAR-TAF: